Etusivu
METAR-TAF:

METAR-TAF

Lentoasemat :

Barrancabermeja, Kolumbia

Leveyspiiri: 07-01N, Pituuspiiri: 073-48W, korkeus merenpinnasta: 126 m

Tämänhetkinen sää

Tämä raportti tehtiin 1 tunti ja 29 minuuttia sitten, kello 16.00 UTC
Tuuli 4 kn lännestä/luoteesta
Lämpötila 31°C
Kosteus 66%
Ilmanpaine 1010 hPa
Näkyvyys 10 km tai enemmän
Muutamia pilviä 1500 ft:n korkeudessa

METAR: SKEJ 131600Z 29004KT 9999 FEW015 31/24 Q1010

Aika: 12:29 (17:29 UTC)


TAF: puuttuu

Säähavainnot ja -ennusteet yli 4000 lentoasemalta (METAR- ja TAF-raportit).

Käytössä olevat sääasemat on merkitty karttaan keltaisilla ja punaisilla pisteillä.

Aseta hiiri pisteen päälle nähdäksesi sääaseman nimen.

Klikkaa sitten nähdäksesi säähavainnot ja -ennusteet.

Kartan vaihtaminen: klikkaa mustalla rastilla varustettuja vihreitä pisteitä, niin voit zoomata sisään; viivalla varustettua vihreää pistettä, niin voit zoomata ulos tai vihreitä nuolia, niin pääset viereisille kartoille.


METAR-TAF: